Time;durP1;ratioP1;P1;durP2;ratioP2;P2;SDS_P1;SDS_P2;PMS_P1;PMS_P2;Temp;Humidity;BMP_temperature;BMP_pressure;BME280_temperature;BME280_humidity;BME280_pressure;Samples;Min_cycle;Max_cycle;Signal;HPM_P1;HPM_P2
2022/01/20 00:02:20;;;;;;;10.75;1.98;;;;;;;4.32;100.00;100506.53;4917140;29;20036;-82
2022/01/20 00:04:51;;;;;;;15.00;2.05;;;;;;;4.26;100.00;100519.06;4915157;29;20410;-82
2022/01/20 00:26:30;;;;;;;16.10;2.53;;;;;;;4.36;100.00;100524.38;4912604;29;20036;-82
2022/01/20 00:29:00;;;;;;;10.80;2.30;;;;;;;4.31;100.00;100526.47;4914722;29;20028;-82
2022/01/20 00:39:23;;;;;;;19.42;3.38;;;;;;;4.31;100.00;100555.06;4916890;29;20048;-81
2022/01/20 00:41:48;;;;;;;14.43;2.03;;;;;;;4.24;100.00;100551.28;4912725;29;20125;-81
2022/01/20 00:44:14;;;;;;;8.80;2.00;;;;;;;4.20;100.00;100549.88;4898580;29;20099;-81
2022/01/20 00:46:40;;;;;;;12.82;2.20;;;;;;;4.23;100.00;100544.44;4915928;29;20410;-82
2022/01/20 00:49:05;;;;;;;13.30;2.85;;;;;;;4.24;100.00;100552.13;4915700;29;20072;-82
2022/01/20 00:51:31;;;;;;;4.57;1.65;;;;;;;4.37;100.00;100564.19;4915075;29;20056;-82
2022/01/20 00:53:57;;;;;;;10.65;1.88;;;;;;;4.33;100.00;100571.41;4914369;29;20032;-82
2022/01/20 00:56:23;;;;;;;10.77;1.95;;;;;;;4.20;100.00;100568.88;4914747;29;20091;-81
2022/01/20 00:58:49;;;;;;;8.75;2.00;;;;;;;4.26;100.00;100570.19;4914781;29;20044;-83
2022/01/20 01:01:15;;;;;;;6.55;1.95;;;;;;;4.36;100.00;100570.34;4915129;29;20427;-81
2022/01/20 01:03:40;;;;;;;16.27;2.97;;;;;;;4.20;100.00;100583.66;4915641;29;20044;-82
2022/01/20 01:08:38;;;;;;;13.35;2.42;;;;;;;4.27;100.00;100584.84;4915803;29;20063;-82
2022/01/20 01:11:04;;;;;;;8.75;2.83;;;;;;;4.34;100.00;100578.28;4914816;29;20036;-82
2022/01/20 01:13:30;;;;;;;10.82;1.80;;;;;;;4.21;100.00;100580.94;4915107;29;20043;-82
2022/01/20 01:15:56;;;;;;;15.20;2.22;;;;;;;4.25;100.00;100584.13;4915799;29;20020;-82
2022/01/20 01:21:13;;;;;;;12.40;2.40;;;;;;;4.29;100.00;100591.59;4915350;29;20032;-82
2022/01/20 01:23:43;;;;;;;12.32;1.83;;;;;;;4.29;100.00;100589.00;4914885;29;20032;-80
2022/01/20 01:26:17;;;;;;;11.80;2.08;;;;;;;4.11;100.00;100593.78;4913762;29;20028;-81
2022/01/20 01:28:43;;;;;;;18.55;2.58;;;;;;;4.11;100.00;100573.00;4908742;29;20044;-81
2022/01/20 01:33:56;;;;;;;11.60;2.95;;;;;;;4.11;100.00;100562.59;4909569;29;20036;-81
2022/01/20 01:36:26;;;;;;;17.95;3.03;;;;;;;4.12;100.00;100563.44;4912049;29;20028;-81
2022/01/20 01:38:52;;;;;;;13.15;2.03;;;;;;;4.11;100.00;100567.00;4913079;29;20032;-81
2022/01/20 01:41:28;;;;;;;10.88;2.20;;;;;;;4.29;100.00;100580.38;4913406;29;20502;-81
2022/01/20 01:43:54;;;;;;;17.27;3.13;;;;;;;4.01;100.00;100582.44;4914123;29;20098;-82
2022/01/20 01:46:20;;;;;;;10.25;2.47;;;;;;;4.07;100.00;100589.75;4912891;29;20091;-81
2022/01/20 01:48:46;;;;;;;14.63;3.35;;;;;;;3.99;100.00;100594.72;4914239;29;20043;-81
2022/01/20 01:51:13;;;;;;;10.27;2.72;;;;;;;4.04;100.00;100608.19;4913534;29;21146;-81
2022/01/20 01:53:40;;;;;;;16.63;2.25;;;;;;;4.03;100.00;100616.94;4914232;29;20084;-82
2022/01/20 01:56:06;;;;;;;11.13;1.90;;;;;;;3.95;100.00;100620.09;4913612;29;20036;-82
2022/01/20 01:58:32;;;;;;;15.60;3.72;;;;;;;3.92;100.00;100617.72;4913658;29;20059;-81
2022/01/20 02:00:58;;;;;;;13.60;2.72;;;;;;;3.98;100.00;100619.84;4912861;29;20040;-82
2022/01/20 02:03:24;;;;;;;10.95;1.90;;;;;;;4.03;100.00;100631.66;4913546;29;20474;-81
2022/01/20 02:06:16;;;;;;;10.52;2.10;;;;;;;4.04;100.00;100636.78;4909151;29;20478;-81
2022/01/20 02:19:44;;;;;;;12.95;2.72;;;;;;;3.90;100.00;100663.75;4913380;29;20039;-82
2022/01/20 02:22:09;;;;;;;8.52;1.92;;;;;;;3.91;100.00;100659.38;4912837;29;20043;-83
2022/01/20 02:24:35;;;;;;;14.00;1.77;;;;;;;3.97;100.00;100674.53;4913845;29;20395;-81
2022/01/20 02:27:00;;;;;;;11.20;2.47;;;;;;;3.84;100.00;100675.41;4912851;29;20043;-83
2022/01/20 02:29:26;;;;;;;18.25;3.03;;;;;;;3.81;100.00;100680.84;4906004;29;20032;-83
2022/01/20 02:31:58;;;;;;;14.68;2.50;;;;;;;3.69;100.00;100695.53;4908130;29;20040;-82
2022/01/20 02:34:24;;;;;;;9.98;2.42;;;;;;;3.76;100.00;100695.09;4911793;29;20058;-82
2022/01/20 02:36:51;;;;;;;10.95;2.17;;;;;;;3.78;100.00;100685.41;4914819;29;20043;-82
2022/01/20 02:44:54;;;;;;;16.75;2.50;;;;;;;3.66;100.00;100693.16;4914798;29;20047;-82
2022/01/20 02:47:26;;;;;;;16.90;3.28;;;;;;;3.55;100.00;100717.28;4915040;29;20032;-82
2022/01/20 02:49:51;;;;;;;12.88;2.47;;;;;;;3.57;100.00;100707.63;4915629;29;20039;-82
2022/01/20 02:52:18;;;;;;;18.15;2.70;;;;;;;3.57;100.00;100699.81;4918238;29;20040;-83
2022/01/20 02:54:44;;;;;;;14.23;2.05;;;;;;;3.62;100.00;100703.84;4900347;29;20050;-81
2022/01/20 02:57:11;;;;;;;16.92;2.67;;;;;;;3.60;100.00;100698.75;4916635;29;20036;-83
2022/01/20 02:59:38;;;;;;;10.32;2.55;;;;;;;3.55;100.00;100701.69;4917257;29;20044;-82
2022/01/20 03:02:05;;;;;;;13.23;2.20;;;;;;;3.54;100.00;100718.22;4917328;29;20442;-82
2022/01/20 03:04:31;;;;;;;21.52;3.35;;;;;;;3.45;100.00;100715.44;4916539;29;20453;-82
2022/01/20 03:06:58;;;;;;;13.93;3.15;;;;;;;3.48;100.00;100718.63;4916417;29;20044;-83
2022/01/20 03:09:24;;;;;;;22.25;3.03;;;;;;;3.51;100.00;100721.00;4916811;29;20056;-81
2022/01/20 03:11:50;;;;;;;21.88;2.85;;;;;;;3.43;100.00;100703.34;4918251;29;20036;-82
2022/01/20 03:14:17;;;;;;;18.13;2.78;;;;;;;3.50;100.00;100718.53;4915755;29;20032;-81
2022/01/20 03:16:44;;;;;;;17.83;2.83;;;;;;;3.46;100.00;100720.50;4916530;29;20030;-83
2022/01/20 03:19:11;;;;;;;16.85;2.70;;;;;;;3.39;100.00;100724.47;4918259;29;20040;-84
2022/01/20 03:21:37;;;;;;;14.48;3.15;;;;;;;3.34;100.00;100722.19;4897950;29;20032;-82
2022/01/20 03:24:04;;;;;;;14.10;2.10;;;;;;;3.31;100.00;100719.81;4916563;29;20035;-82
2022/01/20 03:26:32;;;;;;;11.50;2.50;;;;;;;3.35;100.00;100712.66;4912496;29;20036;-83
2022/01/20 03:29:00;;;;;;;12.00;2.08;;;;;;;3.35;100.00;100704.84;4910199;29;20028;-83
2022/01/20 03:31:30;;;;;;;13.73;2.63;;;;;;;3.18;100.00;100706.84;4915989;29;20035;-83
2022/01/20 03:33:59;;;;;;;14.40;2.28;;;;;;;3.19;100.00;100721.47;4915494;29;20490;-84
2022/01/20 03:36:27;;;;;;;15.95;2.85;;;;;;;3.34;100.00;100734.31;4916844;29;20028;-84
2022/01/20 03:38:53;;;;;;;18.55;3.13;;;;;;;3.37;100.00;100734.13;4917962;29;20115;-83
2022/01/20 03:41:19;;;;;;;12.90;2.67;;;;;;;3.26;100.00;100745.25;4918033;29;20160;-84
2022/01/20 03:43:46;;;;;;;14.10;2.65;;;;;;;3.21;100.00;100740.38;4916737;29;20042;-82
2022/01/20 03:46:13;;;;;;;9.48;2.20;;;;;;;3.16;100.00;100720.84;4917030;29;20055;-82
2022/01/20 03:48:51;;;;;;;21.58;3.75;;;;;;;3.22;100.00;100729.03;4916600;29;20028;-83
2022/01/20 03:51:23;;;;;;;12.70;2.22;;;;;;;3.23;100.00;100725.50;4917069;29;20164;-82
2022/01/20 03:53:51;;;;;;;11.30;2.35;;;;;;;3.12;100.00;100730.59;4917610;29;20135;-82
2022/01/20 03:56:17;;;;;;;11.35;2.50;;;;;;;3.12;100.00;100731.44;4916383;29;20044;-81
2022/01/20 03:58:43;;;;;;;17.92;3.35;;;;;;;3.14;100.00;100718.34;4915011;29;20036;-82
2022/01/20 04:01:11;;;;;;;11.07;2.38;;;;;;;3.17;100.00;100718.16;4914370;29;20043;-81
2022/01/20 04:03:36;;;;;;;19.23;2.75;;;;;;;3.13;100.00;100732.25;4917344;29;20080;-81
2022/01/20 04:06:02;;;;;;;14.68;2.50;;;;;;;2.99;100.00;100726.25;4917321;29;20127;-82
2022/01/20 04:08:36;;;;;;;13.73;2.38;;;;;;;2.99;100.00;100748.75;4911964;29;20811;-81
2022/01/20 04:11:13;;;;;;;10.23;2.38;;;;;;;2.79;100.00;100750.09;4914118;29;20040;-81
2022/01/20 04:13:40;;;;;;;12.73;2.95;;;;;;;2.92;100.00;100745.72;4914679;29;20840;-82
2022/01/20 04:16:14;;;;;;;10.65;2.13;;;;;;;2.96;100.00;100751.56;4917498;29;20032;-82
2022/01/20 04:18:54;;;;;;;8.98;2.47;;;;;;;2.89;100.00;100766.69;4915926;29;20047;-83
2022/01/20 04:21:24;;;;;;;10.93;2.40;;;;;;;2.84;100.00;100773.97;4914692;29;20119;-83
2022/01/20 04:23:53;;;;;;;11.65;2.30;;;;;;;2.84;100.00;100768.78;4914067;29;20047;-83
2022/01/20 04:26:19;;;;;;;10.23;2.08;;;;;;;2.92;100.00;100779.47;4910903;29;20095;-82
2022/01/20 04:28:46;;;;;;;18.08;2.33;;;;;;;2.80;100.00;100777.69;4915214;29;20052;-84
2022/01/20 04:31:12;;;;;;;15.73;2.72;;;;;;;2.75;100.00;100790.94;4917494;29;20063;-83
2022/01/20 04:33:38;;;;;;;12.65;2.45;;;;;;;2.80;100.00;100798.44;4915770;29;20498;-84
2022/01/20 04:36:05;;;;;;;13.00;2.40;;;;;;;2.78;100.00;100805.50;4916031;29;20031;-84
2022/01/20 04:38:31;;;;;;;16.88;2.65;;;;;;;2.68;100.00;100790.50;4915886;29;20144;-83
2022/01/20 04:40:58;;;;;;;13.07;2.42;;;;;;;2.88;100.00;100796.16;4915655;29;20035;-83
2022/01/20 04:43:25;;;;;;;17.63;2.35;;;;;;;2.87;100.00;100797.09;4915582;29;20036;-84
2022/01/20 04:45:59;;;;;;;8.75;1.92;;;;;;;2.82;100.00;100801.75;4915661;29;20035;-83
2022/01/20 04:59:04;;;;;;;13.70;2.35;;;;;;;2.72;100.00;100830.06;4916342;29;20031;-84
2022/01/20 05:01:30;;;;;;;11.85;2.63;;;;;;;2.63;100.00;100817.66;4914818;29;20032;-83
2022/01/20 05:03:57;;;;;;;10.52;2.38;;;;;;;2.69;100.00;100817.28;4914953;29;20509;-82
2022/01/20 05:06:23;;;;;;;17.25;3.30;;;;;;;2.65;100.00;100806.28;4915301;29;20043;-83
2022/01/20 05:08:51;;;;;;;15.93;2.40;;;;;;;2.72;100.00;100817.91;4914618;29;20035;-84
2022/01/20 05:11:17;;;;;;;12.65;2.17;;;;;;;2.65;100.00;100824.44;4898066;29;20032;-83
2022/01/20 05:13:43;;;;;;;12.57;2.50;;;;;;;2.62;100.00;100810.81;4915717;29;20031;-82
2022/01/20 05:16:09;;;;;;;22.63;2.55;;;;;;;2.52;100.00;100821.78;4916316;29;20044;-84
2022/01/20 05:18:35;;;;;;;12.38;2.25;;;;;;;2.48;100.00;100816.88;4911223;29;20517;-83
2022/01/20 05:21:01;;;;;;;15.48;2.75;;;;;;;2.55;100.00;100811.22;4909623;29;20083;-83
2022/01/20 05:23:27;;;;;;;11.55;2.10;;;;;;;2.55;100.00;100806.03;4906897;29;20372;-83
2022/01/20 05:25:53;;;;;;;12.07;2.45;;;;;;;2.56;100.00;100818.06;4914885;29;20043;-83
2022/01/20 05:28:19;;;;;;;14.38;2.47;;;;;;;2.55;100.00;100815.56;4913817;29;20032;-84
2022/01/20 05:30:45;;;;;;;16.17;2.55;;;;;;;2.50;100.00;100820.22;4916042;29;20094;-83
2022/01/20 05:33:11;;;;;;;11.93;2.47;;;;;;;2.57;100.00;100824.09;4916333;29;20119;-84
2022/01/20 05:35:36;;;;;;;11.10;2.60;;;;;;;2.45;100.00;100830.06;4914375;29;20029;-82
2022/01/20 05:38:03;;;;;;;14.30;2.17;;;;;;;2.42;100.00;100837.09;4914125;29;20040;-82
2022/01/20 05:40:28;;;;;;;19.33;2.63;;;;;;;2.48;100.00;100846.25;4912742;29;20119;-83
2022/01/20 05:42:54;;;;;;;13.48;2.92;;;;;;;2.41;100.00;100845.81;4914720;29;20168;-83
2022/01/20 05:45:20;;;;;;;10.55;2.40;;;;;;;2.42;100.00;100849.22;4914676;29;20186;-82
2022/01/20 05:47:48;;;;;;;8.38;2.33;;;;;;;2.40;100.00;100848.47;4912761;29;20515;-83
2022/01/20 05:50:17;;;;;;;15.23;1.90;;;;;;;2.35;100.00;100833.22;4914651;29;20043;-82
2022/01/20 05:52:43;;;;;;;11.48;3.65;;;;;;;2.23;100.00;100827.03;4897406;29;20045;-82
2022/01/20 05:55:15;;;;;;;12.35;1.92;;;;;;;2.29;100.00;100833.59;4914335;29;20028;-83
2022/01/20 05:57:43;;;;;;;7.72;2.40;;;;;;;2.32;100.00;100832.59;4909975;29;20377;-82
2022/01/20 06:00:15;;;;;;;15.18;2.55;;;;;;;2.16;100.00;100832.69;4914661;29;20090;-81
2022/01/20 06:05:25;;;;;;;13.50;2.30;;;;;;;2.26;100.00;100826.88;4915369;29;20490;-83
2022/01/20 06:07:51;;;;;;;12.65;2.33;;;;;;;2.06;100.00;100825.50;4914789;29;20074;-82
2022/01/20 06:10:17;;;;;;;17.98;2.40;;;;;;;1.98;100.00;100830.34;4915354;29;20028;-81
2022/01/20 06:12:43;;;;;;;9.45;1.90;;;;;;;2.18;100.00;100838.63;4914908;29;20036;-82
2022/01/20 06:15:10;;;;;;;10.55;1.52;;;;;;;2.11;100.00;100828.63;4910858;29;20036;-81
2022/01/20 06:17:40;;;;;;;16.27;2.40;;;;;;;2.03;100.00;100837.81;4915144;29;20076;-81
2022/01/20 06:20:08;;;;;;;10.52;1.58;;;;;;;2.17;100.00;100831.78;4907365;29;20041;-82
2022/01/20 06:22:34;;;;;;;9.38;2.35;;;;;;;2.05;100.00;100844.56;4909080;29;20028;-82
2022/01/20 06:25:00;;;;;;;17.83;2.58;;;;;;;2.13;100.00;100842.31;4920901;29;20039;-83
2022/01/20 06:27:26;;;;;;;8.27;2.70;;;;;;;2.03;100.00;100841.25;4920371;29;20024;-82
2022/01/20 06:29:54;;;;;;;11.77;1.67;;;;;;;2.09;100.00;100855.59;4919262;29;20040;-83
2022/01/20 06:32:20;;;;;;;13.07;2.22;;;;;;;2.04;100.00;100853.25;4919844;29;20028;-83
2022/01/20 06:34:46;;;;;;;11.00;1.95;;;;;;;2.15;100.00;100857.78;4921118;29;20162;-83
2022/01/20 06:37:12;;;;;;;9.40;1.73;;;;;;;2.05;100.00;100862.69;4920417;29;20036;-83
2022/01/20 06:39:38;;;;;;;9.88;1.63;;;;;;;2.02;100.00;100870.66;4920020;29;20439;-83
2022/01/20 06:42:05;;;;;;;8.80;2.13;;;;;;;2.03;100.00;100872.31;4921434;29;20395;-82
2022/01/20 06:44:30;;;;;;;9.23;1.60;;;;;;;2.00;100.00;100888.88;4921422;29;20530;-84
2022/01/20 06:46:56;;;;;;;9.02;1.77;;;;;;;1.95;100.00;100887.47;4921128;29;20120;-83
2022/01/20 06:49:21;;;;;;;8.70;2.10;;;;;;;1.83;100.00;100889.06;4920119;29;20119;-83
2022/01/20 06:51:47;;;;;;;11.80;1.65;;;;;;;1.89;100.00;100891.31;4920171;29;20032;-82
2022/01/20 06:54:14;;;;;;;8.00;1.77;;;;;;;1.98;100.00;100905.44;4919414;29;20042;-82
2022/01/20 06:56:43;;;;;;;10.48;2.00;;;;;;;1.79;100.00;100908.28;4919837;29;20063;-83
2022/01/20 06:59:15;;;;;;;8.07;2.42;;;;;;;1.95;100.00;100905.63;4903878;29;20036;-82
2022/01/20 07:01:42;;;;;;;13.60;2.38;;;;;;;1.93;100.00;100907.47;4919220;29;20028;-82
2022/01/20 07:04:10;;;;;;;12.60;2.03;;;;;;;1.93;100.00;100904.88;4920719;29;20050;-82
2022/01/20 07:06:37;;;;;;;15.98;2.45;;;;;;;1.90;100.00;100897.28;4904447;29;20402;-83
2022/01/20 07:09:03;;;;;;;9.80;1.77;;;;;;;1.70;100.00;100907.06;4919241;29;20115;-82
2022/01/20 07:11:31;;;;;;;9.80;2.03;;;;;;;2.02;100.00;100917.28;4919974;29;20028;-82
2022/01/20 07:13:56;;;;;;;8.38;1.67;;;;;;;1.87;100.00;100924.22;4915974;29;20047;-81
2022/01/20 07:16:22;;;;;;;11.20;3.17;;;;;;;1.81;100.00;100925.41;4921039;29;20394;-82
2022/01/20 07:18:50;;;;;;;12.55;2.20;;;;;;;1.72;100.00;100920.75;4912485;29;20386;-84
2022/01/20 07:21:17;;;;;;;15.48;2.05;;;;;;;1.79;100.00;100913.47;4916707;29;20036;-84
2022/01/20 07:23:42;;;;;;;9.55;2.28;;;;;;;1.73;100.00;100909.47;4904032;29;20036;-82
2022/01/20 07:26:08;;;;;;;8.50;1.90;;;;;;;1.72;100.00;100907.81;4921229;29;20035;-84
2022/01/20 07:28:33;;;;;;;10.27;2.00;;;;;;;1.73;100.00;100914.66;4920855;29;20379;-83
2022/01/20 07:30:59;;;;;;;14.95;2.40;;;;;;;1.60;100.00;100932.66;4920898;29;20040;-84
2022/01/20 07:33:25;;;;;;;14.48;2.45;;;;;;;1.58;100.00;100931.13;4920661;29;20043;-87
2022/01/20 07:35:52;;;;;;;7.32;1.67;;;;;;;1.66;100.00;100945.25;4924927;29;20067;-87
2022/01/20 07:38:17;;;;;;;13.75;1.95;;;;;;;1.59;100.00;100943.94;4916444;29;20033;-85
2022/01/20 07:40:43;;;;;;;8.90;2.55;;;;;;;1.54;100.00;100927.88;4902238;29;20040;-86
2022/01/20 07:43:09;;;;;;;13.02;1.92;;;;;;;1.53;100.00;100939.97;4918988;29;20031;-84
2022/01/20 07:45:35;;;;;;;10.65;2.92;;;;;;;1.71;100.00;100945.00;4922241;29;20083;-85
2022/01/20 07:48:02;;;;;;;14.80;2.22;;;;;;;1.77;100.00;100954.16;4917206;29;20032;-86
2022/01/20 07:50:28;;;;;;;12.50;2.05;;;;;;;1.76;100.00;100957.69;4918686;29;20032;-83
2022/01/20 07:52:54;;;;;;;6.57;1.63;;;;;;;1.75;100.00;100951.66;4918195;29;20038;-84
2022/01/20 07:55:20;;;;;;;8.95;1.80;;;;;;;1.58;100.00;100949.22;4917803;29;20114;-86
2022/01/20 07:57:47;;;;;;;7.88;1.77;;;;;;;1.72;100.00;100962.19;4918642;29;20064;-83
2022/01/20 08:00:13;;;;;;;7.03;1.40;;;;;;;1.76;100.00;100963.66;4901466;29;20402;-83
2022/01/20 08:02:39;;;;;;;8.38;1.88;;;;;;;1.60;100.00;100962.91;4919105;29;20035;-85
2022/01/20 08:05:05;;;;;;;14.45;2.55;;;;;;;1.63;100.00;100960.16;4918118;29;20052;-86
2022/01/20 08:07:32;;;;;;;12.52;2.58;;;;;;;1.70;100.00;100958.84;4917089;29;20135;-86
2022/01/20 08:09:59;;;;;;;12.90;2.55;;;;;;;1.71;100.00;100960.53;4894220;29;20036;-85
2022/01/20 08:12:28;;;;;;;12.57;2.53;;;;;;;1.71;100.00;100965.69;4916444;29;20386;-85
2022/01/20 08:14:55;;;;;;;6.93;1.80;;;;;;;1.49;100.00;100966.13;4909160;29;20024;-85
2022/01/20 08:17:21;;;;;;;9.68;1.92;;;;;;;1.64;100.00;100964.41;4917692;29;20040;-85
2022/01/20 08:19:48;;;;;;;11.13;2.08;;;;;;;1.55;100.00;100983.88;4916019;29;20426;-85
2022/01/20 08:22:14;;;;;;;7.68;1.48;;;;;;;1.63;100.00;100988.63;4916674;29;20043;-81
2022/01/20 08:24:41;;;;;;;13.13;2.15;;;;;;;1.83;100.00;100990.88;4917855;29;20035;-83
2022/01/20 08:27:08;;;;;;;8.38;1.67;;;;;;;1.85;100.00;101004.59;4916881;29;20040;-85
2022/01/20 08:29:35;;;;;;;7.75;1.58;;;;;;;1.77;100.00;101001.63;4917833;29;20031;-83
2022/01/20 08:32:04;;;;;;;16.95;2.17;;;;;;;1.85;100.00;101003.72;4916247;29;20041;-83
2022/01/20 08:34:30;;;;;;;11.20;2.22;;;;;;;1.94;100.00;101012.72;4917459;29;20163;-84
2022/01/20 08:36:56;;;;;;;9.40;2.22;;;;;;;1.91;100.00;101003.41;4916110;29;20515;-85
2022/01/20 08:42:01;;;;;;;10.63;1.95;;;;;;;1.84;100.00;101008.09;4917188;29;20031;-84
2022/01/20 08:44:29;;;;;;;7.30;1.33;;;;;;;1.89;100.00;101025.13;4916059;29;20030;-83
2022/01/20 08:46:58;;;;;;;8.18;1.80;;;;;;;2.05;100.00;101041.44;4917359;29;20075;-84
2022/01/20 08:49:26;;;;;;;10.85;2.17;;;;;;;1.95;100.00;101035.13;4917413;29;20036;-84
2022/01/20 08:51:52;;;;;;;18.05;2.72;;;;;;;2.06;100.00;101042.25;4917171;29;20032;-83
2022/01/20 08:54:20;;;;;;;11.82;2.75;;;;;;;1.98;100.00;101022.00;4917514;29;20036;-84
2022/01/20 08:56:45;;;;;;;11.15;1.85;;;;;;;2.00;100.00;101031.34;4924710;29;20510;-84
2022/01/20 08:59:12;;;;;;;8.05;1.90;;;;;;;1.98;99.05;101015.06;4916206;29;20044;-84
2022/01/20 09:01:40;;;;;;;12.27;1.85;;;;;;;2.04;99.06;101023.38;4917318;29;20458;-85
2022/01/20 09:04:06;;;;;;;11.95;2.20;;;;;;;2.21;99.36;101031.00;4917105;29;20044;-84
2022/01/20 09:06:32;;;;;;;5.53;2.08;;;;;;;2.03;100.00;101043.28;4915661;29;20083;-84
2022/01/20 09:08:58;;;;;;;8.77;2.10;;;;;;;1.97;100.00;101044.47;4915728;29;20463;-84
2022/01/20 09:11:37;;;;;;;15.63;2.28;;;;;;;1.91;99.49;101039.66;4907931;29;20035;-82
2022/01/20 09:16:49;;;;;;;7.22;1.73;;;;;;;2.12;98.36;101053.09;4914978;29;20051;-84
2022/01/20 09:19:14;;;;;;;10.77;2.28;;;;;;;2.18;98.55;101067.47;4914427;29;20475;-82
2022/01/20 09:21:40;;;;;;;10.90;2.10;;;;;;;1.91;98.21;101069.88;4915880;29;20099;-83
2022/01/20 09:24:07;;;;;;;9.75;2.25;;;;;;;2.04;99.14;101065.69;4916346;29;20039;-81
2022/01/20 09:26:33;;;;;;;10.85;1.73;;;;;;;2.26;98.53;101069.59;4915724;29;20533;-82
2022/01/20 09:29:00;;;;;;;11.43;2.08;;;;;;;2.18;96.54;101082.19;4915573;29;20103;-82
2022/01/20 09:31:27;;;;;;;5.90;1.70;;;;;;;2.28;96.77;101086.75;4898720;29;20036;-82
2022/01/20 09:33:54;;;;;;;11.80;2.42;;;;;;;2.17;97.35;101075.34;4915842;29;20032;-82
2022/01/20 09:36:21;;;;;;;11.65;2.20;;;;;;;2.27;97.30;101094.59;4917962;29;20036;-82
2022/01/20 09:38:48;;;;;;;10.05;1.73;;;;;;;2.17;97.52;101075.34;4915683;29;20035;-81
2022/01/20 09:41:14;;;;;;;15.40;3.03;;;;;;;2.23;95.22;101085.34;4915227;29;20055;-84
2022/01/20 09:43:40;;;;;;;12.23;2.35;;;;;;;2.07;94.39;101106.94;4914284;29;20482;-82
2022/01/20 09:46:06;;;;;;;9.20;1.73;;;;;;;2.37;95.20;101098.34;4915538;29;20035;-83
2022/01/20 09:48:32;;;;;;;9.68;2.25;;;;;;;2.33;94.08;101106.38;4915020;29;20067;-82
2022/01/20 09:51:01;;;;;;;9.00;2.10;;;;;;;2.34;92.79;101103.66;4914590;29;20039;-82
2022/01/20 09:53:28;;;;;;;8.65;1.90;;;;;;;2.43;92.90;101097.97;4912826;29;20394;-83
2022/01/20 09:55:54;;;;;;;12.43;2.30;;;;;;;2.37;92.92;101094.88;4929869;29;20134;-83
2022/01/20 09:58:19;;;;;;;14.63;1.70;;;;;;;2.33;93.10;101099.41;4914685;29;20542;-82
2022/01/20 10:00:46;;;;;;;11.40;2.60;;;;;;;2.50;92.36;101097.59;4915036;29;20036;-82
2022/01/20 10:03:15;;;;;;;4.68;1.80;;;;;;;2.49;92.63;101127.03;4914173;29;20383;-82
2022/01/20 10:05:50;;;;;;;8.10;2.10;;;;;;;2.63;91.91;101115.84;4914952;29;20119;-81
2022/01/20 10:08:24;;;;;;;6.05;2.10;;;;;;;2.55;91.05;101105.91;4912958;29;20036;-83
2022/01/20 10:10:53;;;;;;;5.38;1.75;;;;;;;2.63;91.67;101119.28;4906428;29;20028;-83
2022/01/20 10:13:22;;;;;;;8.10;2.17;;;;;;;2.56;91.00;101107.63;4913063;29;20110;-82
2022/01/20 10:16:17;;;;;;;10.63;2.28;;;;;;;2.63;91.27;101124.47;4912981;29;20051;-83
2022/01/20 10:18:53;;;;;;;8.38;2.30;;;;;;;2.89;91.79;101118.66;4909754;29;20041;-83
2022/01/20 10:21:37;;;;;;;10.25;2.45;;;;;;;2.83;90.30;101127.63;4914025;29;20040;-81
2022/01/20 10:24:10;;;;;;;11.30;3.55;;;;;;;2.81;90.75;101126.88;4912713;29;20123;-82
2022/01/20 10:26:36;;;;;;;14.70;2.85;;;;;;;2.93;91.03;101131.31;4914069;29;20064;-82
2022/01/20 10:29:08;;;;;;;15.38;2.60;;;;;;;2.77;89.80;101149.56;4913346;29;20031;-82
2022/01/20 10:31:42;;;;;;;10.05;3.20;;;;;;;2.93;89.40;101136.50;4912485;29;20040;-82
2022/01/20 10:34:18;;;;;;;9.50;1.95;;;;;;;3.16;89.52;101151.63;4897571;29;20047;-82
2022/01/20 10:36:53;;;;;;;14.20;2.15;;;;;;;2.91;88.67;101164.31;4898030;29;20131;-82
2022/01/20 10:39:46;;;;;;;8.35;2.63;;;;;;;2.86;88.80;101145.59;4913919;29;20479;-82
2022/01/20 10:42:20;;;;;;;9.80;2.35;;;;;;;2.80;87.74;101145.97;4913235;29;20049;-82
2022/01/20 10:44:55;;;;;;;9.45;2.17;;;;;;;2.91;88.24;101158.28;4913633;29;20395;-82
2022/01/20 10:47:24;;;;;;;8.07;2.35;;;;;;;3.07;87.60;101158.19;4895277;29;20487;-83
2022/01/20 10:49:49;;;;;;;14.55;2.22;;;;;;;3.19;86.98;101165.25;4914641;29;20036;-82
2022/01/20 10:52:19;;;;;;;22.98;2.88;;;;;;;3.32;87.67;101157.53;4913829;29;20066;-82
2022/01/20 10:54:48;;;;;;;13.32;2.40;;;;;;;3.21;87.54;101178.09;4914191;29;20044;-83
2022/01/20 10:57:17;;;;;;;17.88;2.60;;;;;;;3.35;86.62;101172.91;4921539;29;20047;-83
2022/01/20 10:59:58;;;;;;;7.82;1.92;;;;;;;3.35;86.28;101187.66;4917321;29;20504;-83
2022/01/20 11:02:29;;;;;;;10.85;1.63;;;;;;;3.49;85.29;101173.84;4910247;29;20091;-82
2022/01/20 11:04:56;;;;;;;18.45;2.08;;;;;;;3.23;85.45;101179.69;4907455;29;20051;-82
2022/01/20 11:07:24;;;;;;;8.02;2.05;;;;;;;3.54;85.02;101195.16;4909935;29;20052;-82
2022/01/20 11:09:56;;;;;;;9.73;2.10;;;;;;;3.41;84.15;101195.91;4908907;29;20427;-83
2022/01/20 11:12:22;;;;;;;9.88;2.13;;;;;;;3.49;83.29;101195.41;4916449;29;20043;-82
2022/01/20 11:14:51;;;;;;;11.35;2.25;;;;;;;3.81;83.49;101200.38;4916057;29;20444;-82
2022/01/20 11:17:30;;;;;;;7.47;1.70;;;;;;;3.98;83.21;101211.47;4917012;29;20443;-82
2022/01/20 11:20:11;;;;;;;7.55;2.10;;;;;;;3.94;81.97;101213.44;4918182;29;20028;-82
2022/01/20 11:22:51;;;;;;;7.90;1.90;;;;;;;3.89;82.23;101227.63;4915756;29;20036;-81
2022/01/20 11:25:21;;;;;;;10.23;2.20;;;;;;;4.26;81.83;101212.28;4915110;29;20032;-81
2022/01/20 11:27:47;;;;;;;13.55;2.30;;;;;;;4.43;81.20;101204.22;4917337;29;20486;-82
2022/01/20 11:30:21;;;;;;;15.25;2.03;;;;;;;4.44;81.28;101202.47;4916607;29;20036;-82
2022/01/20 11:33:04;;;;;;;16.73;2.28;;;;;;;4.31;79.92;101207.63;4917891;29;20067;-82
2022/01/20 11:35:42;;;;;;;8.55;2.30;;;;;;;4.55;81.30;101205.19;4916222;29;20375;-82
2022/01/20 11:38:09;;;;;;;10.45;2.63;;;;;;;4.45;80.74;101195.50;4917917;29;20039;-82
2022/01/20 11:40:49;;;;;;;8.25;1.70;;;;;;;4.34;80.94;101197.03;4915742;29;20071;-82
2022/01/20 11:43:14;;;;;;;6.97;1.73;;;;;;;4.66;81.18;101201.88;4915240;29;20024;-82
2022/01/20 11:45:46;;;;;;;7.53;2.15;;;;;;;4.14;79.94;101206.97;4916625;29;20039;-82
2022/01/20 11:48:18;;;;;;;8.80;1.95;;;;;;;4.15;80.28;101205.19;4916961;29;20048;-83
2022/01/20 11:50:46;;;;;;;9.57;1.70;;;;;;;4.06;80.90;101198.81;4912624;29;20028;-82
2022/01/20 11:53:17;;;;;;;11.27;2.08;;;;;;;4.07;80.97;101187.47;4917557;29;20482;-82
2022/01/20 11:55:50;;;;;;;12.73;2.92;;;;;;;4.18;81.72;101204.16;4915779;29;20435;-81
2022/01/20 11:58:22;;;;;;;6.35;2.17;;;;;;;4.06;80.74;101192.78;4917096;29;20028;-82
2022/01/20 12:01:05;;;;;;;9.18;1.77;;;;;;;3.55;81.14;101189.88;4916827;29;20431;-82
2022/01/20 12:03:32;;;;;;;;;;;;;;;3.66;82.02;101198.75;4910295;29;20047;-83
2022/01/20 12:05:59;;;;;;;8.27;2.03;;;;;;;3.54;82.35;101183.00;4912915;29;19954;-82
2022/01/20 12:08:25;;;;;;;9.80;1.83;;;;;;;3.71;82.67;101178.50;4912897;29;20067;-82
2022/01/20 12:11:07;;;;;;;6.65;1.58;;;;;;;3.66;82.64;101176.22;4917331;29;20545;-82
2022/01/20 12:13:33;;;;;;;15.85;2.22;;;;;;;3.68;82.79;101179.53;4919824;29;20039;-82
2022/01/20 12:16:01;;;;;;;11.13;2.13;;;;;;;3.47;82.78;101181.72;4917367;29;20036;-82
2022/01/20 12:18:28;;;;;;;5.93;1.58;;;;;;;3.49;83.20;101185.03;4917159;29;20040;-82
2022/01/20 12:20:55;;;;;;;10.43;1.67;;;;;;;3.45;82.89;101173.19;4924496;29;20032;-81
2022/01/20 12:23:24;;;;;;;8.63;2.45;;;;;;;3.60;83.61;101180.94;4916837;29;20036;-81
2022/01/20 12:25:50;;;;;;;8.77;2.10;;;;;;;3.63;83.49;101181.56;4917177;29;20047;-82
2022/01/20 12:28:16;;;;;;;7.72;2.00;;;;;;;3.74;83.55;101185.28;4918194;29;20119;-81
2022/01/20 12:30:47;;;;;;;8.85;1.90;;;;;;;3.62;82.99;101173.91;4916892;29;20039;-80
2022/01/20 12:33:15;;;;;;;8.93;1.80;;;;;;;3.57;83.20;101182.81;4904428;29;20456;-81
2022/01/20 12:35:49;;;;;;;10.27;2.30;;;;;;;3.93;83.12;101161.53;4922676;29;20439;-83
2022/01/20 12:38:22;;;;;;;13.23;1.92;;;;;;;4.07;83.65;101176.28;4916853;29;20035;-83